sensor_id;sensor_type;location;lat;lon;timestamp;P1;durP1;ratioP1;P2;durP2;ratioP2
23123;SDS011;11731;48.592;8.858;2023-04-26T00:00:17;7.37;;;5.13;;
23123;SDS011;11731;48.592;8.858;2023-04-26T00:02:46;9.93;;;5.80;;
23123;SDS011;11731;48.592;8.858;2023-04-26T00:05:13;7.07;;;5.83;;
23123;SDS011;11731;48.592;8.858;2023-04-26T00:07:40;5.80;;;5.20;;
23123;SDS011;11731;48.592;8.858;2023-04-26T00:10:08;8.30;;;5.50;;
23123;SDS011;11731;48.592;8.858;2023-04-26T00:12:36;7.33;;;4.47;;
23123;SDS011;11731;48.592;8.858;2023-04-26T00:15:03;6.03;;;4.80;;
23123;SDS011;11731;48.592;8.858;2023-04-26T00:17:30;7.67;;;5.10;;
23123;SDS011;11731;48.592;8.858;2023-04-26T00:19:58;6.17;;;4.80;;
23123;SDS011;11731;48.592;8.858;2023-04-26T00:22:25;5.77;;;5.13;;
23123;SDS011;11731;48.592;8.858;2023-04-26T00:24:52;6.23;;;4.87;;
23123;SDS011;11731;48.592;8.858;2023-04-26T00:27:19;6.07;;;4.70;;
23123;SDS011;11731;48.592;8.858;2023-04-26T00:29:46;6.20;;;4.40;;
23123;SDS011;11731;48.592;8.858;2023-04-26T00:32:13;7.30;;;5.10;;
23123;SDS011;11731;48.592;8.858;2023-04-26T00:34:40;6.67;;;4.50;;
23123;SDS011;11731;48.592;8.858;2023-04-26T00:37:08;6.97;;;4.40;;
23123;SDS011;11731;48.592;8.858;2023-04-26T00:39:35;5.97;;;4.97;;
23123;SDS011;11731;48.592;8.858;2023-04-26T00:42:02;8.20;;;4.77;;
23123;SDS011;11731;48.592;8.858;2023-04-26T00:44:29;7.13;;;5.10;;
23123;SDS011;11731;48.592;8.858;2023-04-26T00:46:55;7.07;;;5.53;;
23123;SDS011;11731;48.592;8.858;2023-04-26T00:49:23;7.47;;;5.50;;
23123;SDS011;11731;48.592;8.858;2023-04-26T00:51:50;6.67;;;5.07;;
23123;SDS011;11731;48.592;8.858;2023-04-26T00:54:20;8.83;;;4.80;;
23123;SDS011;11731;48.592;8.858;2023-04-26T00:56:47;6.03;;;4.63;;
23123;SDS011;11731;48.592;8.858;2023-04-26T00:59:16;6.90;;;4.70;;
23123;SDS011;11731;48.592;8.858;2023-04-26T01:01:44;6.87;;;4.80;;
23123;SDS011;11731;48.592;8.858;2023-04-26T01:04:12;7.03;;;4.53;;
23123;SDS011;11731;48.592;8.858;2023-04-26T01:06:40;6.70;;;4.70;;
23123;SDS011;11731;48.592;8.858;2023-04-26T01:09:07;6.20;;;4.70;;
23123;SDS011;11731;48.592;8.858;2023-04-26T01:11:37;5.27;;;4.33;;
23123;SDS011;11731;48.592;8.858;2023-04-26T01:14:04;7.77;;;4.50;;
23123;SDS011;11731;48.592;8.858;2023-04-26T01:16:32;5.40;;;4.23;;
23123;SDS011;11731;48.592;8.858;2023-04-26T01:19:05;5.57;;;4.00;;
23123;SDS011;11731;48.592;8.858;2023-04-26T01:21:33;6.03;;;3.97;;
23123;SDS011;11731;48.592;8.858;2023-04-26T01:24:01;8.27;;;4.23;;
23123;SDS011;11731;48.592;8.858;2023-04-26T01:26:29;5.13;;;4.07;;
23123;SDS011;11731;48.592;8.858;2023-04-26T01:28:56;5.87;;;4.07;;
23123;SDS011;11731;48.592;8.858;2023-04-26T01:31:23;7.20;;;4.40;;
23123;SDS011;11731;48.592;8.858;2023-04-26T01:33:50;7.20;;;4.90;;
23123;SDS011;11731;48.592;8.858;2023-04-26T01:36:16;6.33;;;5.07;;
23123;SDS011;11731;48.592;8.858;2023-04-26T01:38:43;10.40;;;4.30;;
23123;SDS011;11731;48.592;8.858;2023-04-26T01:41:12;6.30;;;4.67;;
23123;SDS011;11731;48.592;8.858;2023-04-26T01:43:38;5.00;;;4.03;;
23123;SDS011;11731;48.592;8.858;2023-04-26T01:46:05;6.80;;;5.70;;
23123;SDS011;11731;48.592;8.858;2023-04-26T01:48:32;6.70;;;4.73;;
23123;SDS011;11731;48.592;8.858;2023-04-26T01:50:59;8.50;;;5.10;;
23123;SDS011;11731;48.592;8.858;2023-04-26T01:53:26;9.07;;;5.30;;
23123;SDS011;11731;48.592;8.858;2023-04-26T01:55:53;7.67;;;5.00;;
23123;SDS011;11731;48.592;8.858;2023-04-26T01:58:22;8.57;;;5.30;;
23123;SDS011;11731;48.592;8.858;2023-04-26T02:00:48;6.57;;;5.37;;
23123;SDS011;11731;48.592;8.858;2023-04-26T02:03:15;6.57;;;5.30;;
23123;SDS011;11731;48.592;8.858;2023-04-26T02:05:42;6.63;;;5.17;;
23123;SDS011;11731;48.592;8.858;2023-04-26T02:08:09;7.70;;;5.60;;
23123;SDS011;11731;48.592;8.858;2023-04-26T02:10:36;8.57;;;5.90;;
23123;SDS011;11731;48.592;8.858;2023-04-26T02:13:03;7.87;;;6.30;;
23123;SDS011;11731;48.592;8.858;2023-04-26T02:15:34;6.77;;;5.93;;
23123;SDS011;11731;48.592;8.858;2023-04-26T02:18:01;8.63;;;6.00;;
23123;SDS011;11731;48.592;8.858;2023-04-26T02:20:28;8.13;;;6.43;;
23123;SDS011;11731;48.592;8.858;2023-04-26T02:22:55;8.73;;;5.90;;
23123;SDS011;11731;48.592;8.858;2023-04-26T02:25:22;9.30;;;6.57;;
23123;SDS011;11731;48.592;8.858;2023-04-26T02:27:49;9.13;;;6.47;;
23123;SDS011;11731;48.592;8.858;2023-04-26T02:30:16;12.20;;;6.57;;
23123;SDS011;11731;48.592;8.858;2023-04-26T02:32:44;10.30;;;7.03;;
23123;SDS011;11731;48.592;8.858;2023-04-26T02:35:11;9.07;;;6.60;;
23123;SDS011;11731;48.592;8.858;2023-04-26T02:37:38;13.37;;;6.53;;
23123;SDS011;11731;48.592;8.858;2023-04-26T02:40:06;9.10;;;7.17;;
23123;SDS011;11731;48.592;8.858;2023-04-26T02:42:34;9.87;;;6.53;;
23123;SDS011;11731;48.592;8.858;2023-04-26T02:45:01;9.93;;;6.77;;
23123;SDS011;11731;48.592;8.858;2023-04-26T02:47:29;8.67;;;6.00;;
23123;SDS011;11731;48.592;8.858;2023-04-26T02:49:57;9.30;;;6.67;;
23123;SDS011;11731;48.592;8.858;2023-04-26T02:52:24;8.97;;;6.17;;
23123;SDS011;11731;48.592;8.858;2023-04-26T02:54:51;7.50;;;6.40;;
23123;SDS011;11731;48.592;8.858;2023-04-26T02:57:17;9.37;;;6.93;;
23123;SDS011;11731;48.592;8.858;2023-04-26T02:59:44;10.03;;;7.00;;
23123;SDS011;11731;48.592;8.858;2023-04-26T03:02:11;8.80;;;6.20;;
23123;SDS011;11731;48.592;8.858;2023-04-26T03:04:38;8.57;;;6.20;;
23123;SDS011;11731;48.592;8.858;2023-04-26T03:07:07;7.80;;;6.23;;
23123;SDS011;11731;48.592;8.858;2023-04-26T03:09:34;6.67;;;5.70;;
23123;SDS011;11731;48.592;8.858;2023-04-26T03:12:03;8.27;;;6.43;;
23123;SDS011;11731;48.592;8.858;2023-04-26T03:14:31;7.33;;;5.83;;
23123;SDS011;11731;48.592;8.858;2023-04-26T03:16:58;8.83;;;6.03;;
23123;SDS011;11731;48.592;8.858;2023-04-26T03:19:25;9.07;;;7.00;;
23123;SDS011;11731;48.592;8.858;2023-04-26T03:21:52;8.77;;;6.10;;
23123;SDS011;11731;48.592;8.858;2023-04-26T03:24:21;8.87;;;6.10;;
23123;SDS011;11731;48.592;8.858;2023-04-26T03:26:48;10.40;;;6.60;;
23123;SDS011;11731;48.592;8.858;2023-04-26T03:29:15;10.83;;;6.37;;
23123;SDS011;11731;48.592;8.858;2023-04-26T03:31:42;10.67;;;6.50;;
23123;SDS011;11731;48.592;8.858;2023-04-26T03:34:09;7.70;;;5.97;;
23123;SDS011;11731;48.592;8.858;2023-04-26T03:36:36;10.27;;;6.40;;
23123;SDS011;11731;48.592;8.858;2023-04-26T03:39:03;10.07;;;7.00;;
23123;SDS011;11731;48.592;8.858;2023-04-26T03:41:32;11.70;;;6.53;;
23123;SDS011;11731;48.592;8.858;2023-04-26T03:44:00;7.47;;;6.07;;
23123;SDS011;11731;48.592;8.858;2023-04-26T03:46:27;9.60;;;6.47;;
23123;SDS011;11731;48.592;8.858;2023-04-26T03:48:54;8.20;;;6.33;;
23123;SDS011;11731;48.592;8.858;2023-04-26T03:51:21;7.13;;;5.17;;
23123;SDS011;11731;48.592;8.858;2023-04-26T03:53:48;5.90;;;4.63;;
23123;SDS011;11731;48.592;8.858;2023-04-26T03:56:15;6.37;;;4.67;;
23123;SDS011;11731;48.592;8.858;2023-04-26T03:58:43;7.70;;;4.70;;
23123;SDS011;11731;48.592;8.858;2023-04-26T04:01:10;7.07;;;5.03;;
23123;SDS011;11731;48.592;8.858;2023-04-26T04:03:37;7.77;;;4.63;;
23123;SDS011;11731;48.592;8.858;2023-04-26T04:06:04;9.83;;;5.50;;
23123;SDS011;11731;48.592;8.858;2023-04-26T04:08:32;10.27;;;4.83;;
23123;SDS011;11731;48.592;8.858;2023-04-26T04:10:59;10.33;;;5.03;;
23123;SDS011;11731;48.592;8.858;2023-04-26T04:13:26;8.97;;;5.30;;
23123;SDS011;11731;48.592;8.858;2023-04-26T04:15:54;6.33;;;4.63;;
23123;SDS011;11731;48.592;8.858;2023-04-26T04:18:21;7.20;;;4.20;;
23123;SDS011;11731;48.592;8.858;2023-04-26T04:20:48;7.53;;;4.30;;
23123;SDS011;11731;48.592;8.858;2023-04-26T04:23:15;5.80;;;4.00;;
23123;SDS011;11731;48.592;8.858;2023-04-26T04:25:42;8.03;;;3.90;;
23123;SDS011;11731;48.592;8.858;2023-04-26T04:28:09;7.60;;;4.27;;
23123;SDS011;11731;48.592;8.858;2023-04-26T04:30:37;8.17;;;4.70;;
23123;SDS011;11731;48.592;8.858;2023-04-26T04:33:05;6.70;;;4.70;;
23123;SDS011;11731;48.592;8.858;2023-04-26T04:35:32;7.33;;;4.80;;
23123;SDS011;11731;48.592;8.858;2023-04-26T04:37:59;6.80;;;4.50;;
23123;SDS011;11731;48.592;8.858;2023-04-26T04:40:27;9.10;;;4.60;;
23123;SDS011;11731;48.592;8.858;2023-04-26T04:42:55;8.57;;;5.03;;
23123;SDS011;11731;48.592;8.858;2023-04-26T04:45:23;6.30;;;4.43;;
23123;SDS011;11731;48.592;8.858;2023-04-26T04:47:51;8.53;;;5.17;;
23123;SDS011;11731;48.592;8.858;2023-04-26T04:50:19;6.83;;;4.93;;
23123;SDS011;11731;48.592;8.858;2023-04-26T04:52:47;5.73;;;4.23;;
23123;SDS011;11731;48.592;8.858;2023-04-26T04:55:14;8.50;;;5.17;;
23123;SDS011;11731;48.592;8.858;2023-04-26T04:57:41;6.33;;;4.70;;
23123;SDS011;11731;48.592;8.858;2023-04-26T05:00:08;6.17;;;4.87;;
23123;SDS011;11731;48.592;8.858;2023-04-26T05:02:36;8.87;;;4.53;;
23123;SDS011;11731;48.592;8.858;2023-04-26T05:05:03;6.77;;;5.27;;
23123;SDS011;11731;48.592;8.858;2023-04-26T05:07:32;7.17;;;4.67;;
23123;SDS011;11731;48.592;8.858;2023-04-26T05:09:59;8.63;;;4.93;;
23123;SDS011;11731;48.592;8.858;2023-04-26T05:12:26;7.87;;;5.57;;
23123;SDS011;11731;48.592;8.858;2023-04-26T05:14:53;8.33;;;5.80;;
23123;SDS011;11731;48.592;8.858;2023-04-26T05:17:20;9.30;;;4.40;;
23123;SDS011;11731;48.592;8.858;2023-04-26T05:19:47;7.40;;;4.47;;
23123;SDS011;11731;48.592;8.858;2023-04-26T05:22:14;7.03;;;4.50;;
23123;SDS011;11731;48.592;8.858;2023-04-26T05:24:45;11.47;;;4.67;;
23123;SDS011;11731;48.592;8.858;2023-04-26T05:27:12;10.77;;;4.87;;
23123;SDS011;11731;48.592;8.858;2023-04-26T05:29:39;8.20;;;5.60;;
23123;SDS011;11731;48.592;8.858;2023-04-26T05:32:06;7.83;;;4.80;;
23123;SDS011;11731;48.592;8.858;2023-04-26T05:34:33;8.03;;;4.67;;
23123;SDS011;11731;48.592;8.858;2023-04-26T05:37:00;6.70;;;4.90;;
23123;SDS011;11731;48.592;8.858;2023-04-26T05:39:27;9.63;;;5.10;;
23123;SDS011;11731;48.592;8.858;2023-04-26T05:41:57;7.60;;;4.57;;
23123;SDS011;11731;48.592;8.858;2023-04-26T05:44:24;5.87;;;5.33;;
23123;SDS011;11731;48.592;8.858;2023-04-26T05:46:51;7.77;;;4.73;;
23123;SDS011;11731;48.592;8.858;2023-04-26T05:49:18;4.87;;;4.33;;
23123;SDS011;11731;48.592;8.858;2023-04-26T05:51:44;8.87;;;4.83;;
23123;SDS011;11731;48.592;8.858;2023-04-26T05:54:11;6.63;;;4.73;;
23123;SDS011;11731;48.592;8.858;2023-04-26T05:56:38;6.13;;;4.73;;
23123;SDS011;11731;48.592;8.858;2023-04-26T05:59:06;5.60;;;4.70;;
23123;SDS011;11731;48.592;8.858;2023-04-26T06:01:34;9.03;;;5.03;;
23123;SDS011;11731;48.592;8.858;2023-04-26T06:04:00;5.57;;;4.27;;
23123;SDS011;11731;48.592;8.858;2023-04-26T06:06:27;6.03;;;4.53;;
23123;SDS011;11731;48.592;8.858;2023-04-26T06:08:54;5.97;;;4.60;;
23123;SDS011;11731;48.592;8.858;2023-04-26T06:11:21;6.10;;;4.37;;
23123;SDS011;11731;48.592;8.858;2023-04-26T06:13:48;10.77;;;4.87;;
23123;SDS011;11731;48.592;8.858;2023-04-26T06:16:16;6.63;;;4.50;;
23123;SDS011;11731;48.592;8.858;2023-04-26T06:18:43;5.20;;;4.23;;
23123;SDS011;11731;48.592;8.858;2023-04-26T06:21:10;6.03;;;4.70;;
23123;SDS011;11731;48.592;8.858;2023-04-26T06:23:37;11.23;;;4.87;;
23123;SDS011;11731;48.592;8.858;2023-04-26T06:26:04;6.50;;;4.70;;
23123;SDS011;11731;48.592;8.858;2023-04-26T06:28:31;7.70;;;5.13;;
23123;SDS011;11731;48.592;8.858;2023-04-26T06:30:57;8.00;;;4.80;;
23123;SDS011;11731;48.592;8.858;2023-04-26T06:33:26;8.60;;;4.37;;
23123;SDS011;11731;48.592;8.858;2023-04-26T06:35:52;9.17;;;5.27;;
23123;SDS011;11731;48.592;8.858;2023-04-26T06:38:19;6.40;;;4.20;;
23123;SDS011;11731;48.592;8.858;2023-04-26T06:40:46;10.50;;;4.73;;
23123;SDS011;11731;48.592;8.858;2023-04-26T06:43:13;7.13;;;4.60;;
23123;SDS011;11731;48.592;8.858;2023-04-26T06:45:40;5.37;;;4.40;;
23123;SDS011;11731;48.592;8.858;2023-04-26T06:48:07;12.60;;;4.47;;
23123;SDS011;11731;48.592;8.858;2023-04-26T06:50:37;8.57;;;3.97;;
23123;SDS011;11731;48.592;8.858;2023-04-26T06:53:04;7.60;;;4.67;;
23123;SDS011;11731;48.592;8.858;2023-04-26T06:55:31;10.70;;;4.70;;
23123;SDS011;11731;48.592;8.858;2023-04-26T06:57:58;7.13;;;4.27;;
23123;SDS011;11731;48.592;8.858;2023-04-26T07:00:25;8.77;;;4.73;;
23123;SDS011;11731;48.592;8.858;2023-04-26T07:02:52;6.57;;;4.90;;
23123;SDS011;11731;48.592;8.858;2023-04-26T07:05:19;7.43;;;4.60;;
23123;SDS011;11731;48.592;8.858;2023-04-26T07:07:47;6.33;;;4.17;;
23123;SDS011;11731;48.592;8.858;2023-04-26T07:10:15;6.10;;;3.60;;
23123;SDS011;11731;48.592;8.858;2023-04-26T07:12:42;8.67;;;4.47;;
23123;SDS011;11731;48.592;8.858;2023-04-26T07:15:09;8.10;;;4.53;;
23123;SDS011;11731;48.592;8.858;2023-04-26T07:17:36;5.13;;;3.87;;
23123;SDS011;11731;48.592;8.858;2023-04-26T07:20:03;4.10;;;3.27;;
23123;SDS011;11731;48.592;8.858;2023-04-26T07:22:31;8.93;;;4.00;;
23123;SDS011;11731;48.592;8.858;2023-04-26T07:24:59;6.70;;;3.60;;
23123;SDS011;11731;48.592;8.858;2023-04-26T07:27:26;6.20;;;3.60;;
23123;SDS011;11731;48.592;8.858;2023-04-26T07:29:55;3.77;;;2.80;;
23123;SDS011;11731;48.592;8.858;2023-04-26T07:32:22;5.23;;;3.37;;
23123;SDS011;11731;48.592;8.858;2023-04-26T07:34:49;5.47;;;3.20;;
23123;SDS011;11731;48.592;8.858;2023-04-26T07:37:16;9.13;;;4.27;;
23123;SDS011;11731;48.592;8.858;2023-04-26T07:39:42;5.20;;;3.50;;
23123;SDS011;11731;48.592;8.858;2023-04-26T07:42:11;6.13;;;3.57;;
23123;SDS011;11731;48.592;8.858;2023-04-26T07:44:38;4.83;;;3.40;;
23123;SDS011;11731;48.592;8.858;2023-04-26T07:47:04;5.47;;;3.43;;
23123;SDS011;11731;48.592;8.858;2023-04-26T07:49:37;7.43;;;3.20;;
23123;SDS011;11731;48.592;8.858;2023-04-26T07:52:04;6.67;;;2.80;;
23123;SDS011;11731;48.592;8.858;2023-04-26T07:54:31;4.17;;;3.13;;
23123;SDS011;11731;48.592;8.858;2023-04-26T07:56:58;7.60;;;3.63;;
23123;SDS011;11731;48.592;8.858;2023-04-26T07:59:27;4.67;;;3.23;;
23123;SDS011;11731;48.592;8.858;2023-04-26T08:01:54;7.57;;;3.20;;
23123;SDS011;11731;48.592;8.858;2023-04-26T08:04:28;5.50;;;3.00;;
23123;SDS011;11731;48.592;8.858;2023-04-26T08:06:57;7.73;;;3.40;;
23123;SDS011;11731;48.592;8.858;2023-04-26T08:09:25;6.03;;;3.37;;
23123;SDS011;11731;48.592;8.858;2023-04-26T08:11:52;6.70;;;3.67;;
23123;SDS011;11731;48.592;8.858;2023-04-26T08:14:19;4.53;;;3.23;;
23123;SDS011;11731;48.592;8.858;2023-04-26T08:16:47;4.53;;;3.40;;
23123;SDS011;11731;48.592;8.858;2023-04-26T08:19:15;6.73;;;3.40;;
23123;SDS011;11731;48.592;8.858;2023-04-26T08:21:42;3.97;;;3.10;;
23123;SDS011;11731;48.592;8.858;2023-04-26T08:24:09;5.93;;;2.93;;
23123;SDS011;11731;48.592;8.858;2023-04-26T08:26:35;6.17;;;3.73;;
23123;SDS011;11731;48.592;8.858;2023-04-26T08:29:02;4.10;;;2.90;;
23123;SDS011;11731;48.592;8.858;2023-04-26T08:31:29;6.93;;;3.03;;
23123;SDS011;11731;48.592;8.858;2023-04-26T08:33:57;4.83;;;3.07;;
23123;SDS011;11731;48.592;8.858;2023-04-26T08:36:24;6.30;;;3.97;;
23123;SDS011;11731;48.592;8.858;2023-04-26T08:38:51;7.03;;;3.57;;
23123;SDS011;11731;48.592;8.858;2023-04-26T08:41:21;7.27;;;3.40;;
23123;SDS011;11731;48.592;8.858;2023-04-26T08:43:54;7.17;;;3.63;;
23123;SDS011;11731;48.592;8.858;2023-04-26T08:50:12;5.57;;;3.10;;
23123;SDS011;11731;48.592;8.858;2023-04-26T08:52:40;5.50;;;3.30;;
23123;SDS011;11731;48.592;8.858;2023-04-26T08:55:08;2.90;;;2.70;;
23123;SDS011;11731;48.592;8.858;2023-04-26T08:57:36;5.40;;;3.27;;
23123;SDS011;11731;48.592;8.858;2023-04-26T09:00:05;4.57;;;3.20;;
23123;SDS011;11731;48.592;8.858;2023-04-26T09:02:34;5.10;;;3.23;;
23123;SDS011;11731;48.592;8.858;2023-04-26T09:05:01;5.00;;;3.30;;
23123;SDS011;11731;48.592;8.858;2023-04-26T09:07:34;6.03;;;3.70;;
23123;SDS011;11731;48.592;8.858;2023-04-26T09:10:06;6.60;;;3.77;;
23123;SDS011;11731;48.592;8.858;2023-04-26T09:12:34;6.50;;;3.40;;
23123;SDS011;11731;48.592;8.858;2023-04-26T09:15:01;5.47;;;3.27;;
23123;SDS011;11731;48.592;8.858;2023-04-26T09:17:29;6.07;;;3.37;;
23123;SDS011;11731;48.592;8.858;2023-04-26T09:19:56;4.77;;;3.63;;
23123;SDS011;11731;48.592;8.858;2023-04-26T09:22:28;6.00;;;3.60;;
23123;SDS011;11731;48.592;8.858;2023-04-26T09:24:57;9.20;;;3.37;;
23123;SDS011;11731;48.592;8.858;2023-04-26T09:27:31;6.57;;;3.20;;
23123;SDS011;11731;48.592;8.858;2023-04-26T09:30:01;6.27;;;3.60;;
23123;SDS011;11731;48.592;8.858;2023-04-26T09:32:51;4.90;;;3.47;;
23123;SDS011;11731;48.592;8.858;2023-04-26T09:35:21;5.27;;;3.50;;
23123;SDS011;11731;48.592;8.858;2023-04-26T09:37:54;4.30;;;3.10;;
23123;SDS011;11731;48.592;8.858;2023-04-26T09:40:24;6.77;;;3.33;;
23123;SDS011;11731;48.592;8.858;2023-04-26T09:42:56;5.60;;;3.30;;
23123;SDS011;11731;48.592;8.858;2023-04-26T09:45:24;7.63;;;3.00;;
23123;SDS011;11731;48.592;8.858;2023-04-26T09:47:51;4.57;;;2.80;;
23123;SDS011;11731;48.592;8.858;2023-04-26T09:50:25;5.73;;;3.00;;
23123;SDS011;11731;48.592;8.858;2023-04-26T09:52:56;4.80;;;3.07;;
23123;SDS011;11731;48.592;8.858;2023-04-26T09:55:28;4.87;;;3.37;;
23123;SDS011;11731;48.592;8.858;2023-04-26T09:57:55;7.03;;;3.10;;
23123;SDS011;11731;48.592;8.858;2023-04-26T10:00:24;4.13;;;3.03;;
23123;SDS011;11731;48.592;8.858;2023-04-26T10:02:52;6.70;;;3.50;;
23123;SDS011;11731;48.592;8.858;2023-04-26T10:05:21;5.70;;;3.57;;
23123;SDS011;11731;48.592;8.858;2023-04-26T10:07:48;6.10;;;3.63;;
23123;SDS011;11731;48.592;8.858;2023-04-26T10:10:16;6.10;;;3.70;;
23123;SDS011;11731;48.592;8.858;2023-04-26T10:12:44;5.60;;;3.23;;
23123;SDS011;11731;48.592;8.858;2023-04-26T10:15:12;4.60;;;3.80;;
23123;SDS011;11731;48.592;8.858;2023-04-26T10:17:40;4.47;;;2.90;;
23123;SDS011;11731;48.592;8.858;2023-04-26T10:20:08;5.70;;;3.83;;
23123;SDS011;11731;48.592;8.858;2023-04-26T10:22:39;4.57;;;3.17;;
23123;SDS011;11731;48.592;8.858;2023-04-26T10:25:10;4.10;;;3.27;;
23123;SDS011;11731;48.592;8.858;2023-04-26T10:27:48;5.33;;;3.30;;
23123;SDS011;11731;48.592;8.858;2023-04-26T10:30:17;5.50;;;3.10;;
23123;SDS011;11731;48.592;8.858;2023-04-26T10:38:27;7.53;;;3.37;;
23123;SDS011;11731;48.592;8.858;2023-04-26T10:40:54;5.97;;;2.73;;
23123;SDS011;11731;48.592;8.858;2023-04-26T10:43:43;4.53;;;2.60;;
23123;SDS011;11731;48.592;8.858;2023-04-26T10:49:12;2.90;;;2.57;;
23123;SDS011;11731;48.592;8.858;2023-04-26T10:54:52;3.33;;;2.43;;
23123;SDS011;11731;48.592;8.858;2023-04-26T10:57:21;4.20;;;2.10;;
23123;SDS011;11731;48.592;8.858;2023-04-26T11:03:02;2.73;;;1.60;;
23123;SDS011;11731;48.592;8.858;2023-04-26T11:05:37;4.77;;;2.50;;
23123;SDS011;11731;48.592;8.858;2023-04-26T11:08:07;3.93;;;2.20;;
23123;SDS011;11731;48.592;8.858;2023-04-26T11:10:41;4.60;;;2.00;;
23123;SDS011;11731;48.592;8.858;2023-04-26T11:13:08;2.67;;;2.00;;
23123;SDS011;11731;48.592;8.858;2023-04-26T11:15:37;2.97;;;2.00;;
23123;SDS011;11731;48.592;8.858;2023-04-26T11:18:05;2.50;;;1.67;;
23123;SDS011;11731;48.592;8.858;2023-04-26T11:20:32;6.60;;;2.13;;
23123;SDS011;11731;48.592;8.858;2023-04-26T11:22:59;3.73;;;2.13;;
23123;SDS011;11731;48.592;8.858;2023-04-26T11:25:27;3.33;;;2.13;;
23123;SDS011;11731;48.592;8.858;2023-04-26T11:27:55;4.07;;;2.10;;
23123;SDS011;11731;48.592;8.858;2023-04-26T11:30:26;2.00;;;1.80;;
23123;SDS011;11731;48.592;8.858;2023-04-26T11:32:55;4.60;;;2.10;;
23123;SDS011;11731;48.592;8.858;2023-04-26T11:35:24;3.40;;;2.30;;
23123;SDS011;11731;48.592;8.858;2023-04-26T11:37:51;4.57;;;1.93;;
23123;SDS011;11731;48.592;8.858;2023-04-26T11:40:18;3.63;;;2.10;;
23123;SDS011;11731;48.592;8.858;2023-04-26T11:42:45;5.70;;;2.23;;
23123;SDS011;11731;48.592;8.858;2023-04-26T11:45:16;3.50;;;2.30;;
23123;SDS011;11731;48.592;8.858;2023-04-26T11:47:43;2.93;;;2.07;;
23123;SDS011;11731;48.592;8.858;2023-04-26T11:50:10;3.47;;;2.20;;
23123;SDS011;11731;48.592;8.858;2023-04-26T11:52:39;2.33;;;2.00;;
23123;SDS011;11731;48.592;8.858;2023-04-26T11:55:07;5.67;;;2.50;;
23123;SDS011;11731;48.592;8.858;2023-04-26T11:57:35;3.93;;;2.10;;
23123;SDS011;11731;48.592;8.858;2023-04-26T12:00:11;3.17;;;2.50;;
23123;SDS011;11731;48.592;8.858;2023-04-26T12:02:42;3.67;;;2.20;;
23123;SDS011;11731;48.592;8.858;2023-04-26T12:05:10;3.87;;;2.10;;
23123;SDS011;11731;48.592;8.858;2023-04-26T12:07:49;5.67;;;2.30;;
23123;SDS011;11731;48.592;8.858;2023-04-26T12:10:18;2.47;;;2.10;;
23123;SDS011;11731;48.592;8.858;2023-04-26T12:12:46;8.93;;;2.80;;
23123;SDS011;11731;48.592;8.858;2023-04-26T12:15:15;3.73;;;2.60;;
23123;SDS011;11731;48.592;8.858;2023-04-26T12:17:51;3.90;;;2.40;;
23123;SDS011;11731;48.592;8.858;2023-04-26T12:20:24;3.83;;;2.60;;
23123;SDS011;11731;48.592;8.858;2023-04-26T12:22:57;5.10;;;2.20;;
23123;SDS011;11731;48.592;8.858;2023-04-26T12:25:26;4.77;;;2.77;;
23123;SDS011;11731;48.592;8.858;2023-04-26T12:27:53;3.63;;;2.27;;
23123;SDS011;11731;48.592;8.858;2023-04-26T12:30:20;3.53;;;2.33;;
23123;SDS011;11731;48.592;8.858;2023-04-26T12:32:47;6.97;;;2.30;;
23123;SDS011;11731;48.592;8.858;2023-04-26T12:35:14;3.07;;;2.00;;
23123;SDS011;11731;48.592;8.858;2023-04-26T12:37:41;4.27;;;2.07;;
23123;SDS011;11731;48.592;8.858;2023-04-26T12:40:10;7.07;;;2.20;;
23123;SDS011;11731;48.592;8.858;2023-04-26T12:42:38;2.30;;;2.10;;
23123;SDS011;11731;48.592;8.858;2023-04-26T12:45:05;2.10;;;1.90;;
23123;SDS011;11731;48.592;8.858;2023-04-26T12:47:33;2.33;;;1.70;;
23123;SDS011;11731;48.592;8.858;2023-04-26T12:49:59;4.83;;;1.80;;
23123;SDS011;11731;48.592;8.858;2023-04-26T12:52:27;2.80;;;1.80;;
23123;SDS011;11731;48.592;8.858;2023-04-26T12:54:54;2.70;;;1.70;;
23123;SDS011;11731;48.592;8.858;2023-04-26T12:57:22;2.70;;;1.80;;
23123;SDS011;11731;48.592;8.858;2023-04-26T12:59:49;2.57;;;2.10;;
23123;SDS011;11731;48.592;8.858;2023-04-26T13:02:16;4.37;;;1.97;;
23123;SDS011;11731;48.592;8.858;2023-04-26T13:04:43;2.27;;;1.80;;
23123;SDS011;11731;48.592;8.858;2023-04-26T13:07:10;8.87;;;2.37;;
23123;SDS011;11731;48.592;8.858;2023-04-26T13:09:37;2.20;;;1.87;;
23123;SDS011;11731;48.592;8.858;2023-04-26T13:12:04;3.40;;;2.23;;
23123;SDS011;11731;48.592;8.858;2023-04-26T13:14:33;3.20;;;1.73;;
23123;SDS011;11731;48.592;8.858;2023-04-26T13:16:59;4.43;;;1.90;;
23123;SDS011;11731;48.592;8.858;2023-04-26T13:19:27;3.53;;;2.40;;
23123;SDS011;11731;48.592;8.858;2023-04-26T13:21:54;5.30;;;2.40;;
23123;SDS011;11731;48.592;8.858;2023-04-26T13:24:21;4.30;;;2.47;;
23123;SDS011;11731;48.592;8.858;2023-04-26T13:26:48;3.07;;;2.50;;
23123;SDS011;11731;48.592;8.858;2023-04-26T13:29:15;3.70;;;2.37;;
23123;SDS011;11731;48.592;8.858;2023-04-26T13:31:43;3.67;;;2.30;;
23123;SDS011;11731;48.592;8.858;2023-04-26T13:34:10;3.80;;;3.33;;
23123;SDS011;11731;48.592;8.858;2023-04-26T13:36:37;3.40;;;2.10;;
23123;SDS011;11731;48.592;8.858;2023-04-26T13:39:04;4.60;;;2.10;;
23123;SDS011;11731;48.592;8.858;2023-04-26T13:41:31;2.07;;;1.87;;
23123;SDS011;11731;48.592;8.858;2023-04-26T13:43:59;2.63;;;1.90;;
23123;SDS011;11731;48.592;8.858;2023-04-26T13:46:26;2.93;;;1.90;;
23123;SDS011;11731;48.592;8.858;2023-04-26T13:48:55;3.90;;;2.10;;
23123;SDS011;11731;48.592;8.858;2023-04-26T13:51:22;5.93;;;1.90;;
23123;SDS011;11731;48.592;8.858;2023-04-26T13:53:52;5.60;;;2.40;;
23123;SDS011;11731;48.592;8.858;2023-04-26T13:56:19;3.60;;;1.97;;
23123;SDS011;11731;48.592;8.858;2023-04-26T13:58:47;3.47;;;2.30;;
23123;SDS011;11731;48.592;8.858;2023-04-26T14:01:14;4.87;;;2.33;;
23123;SDS011;11731;48.592;8.858;2023-04-26T14:03:41;2.70;;;1.90;;
23123;SDS011;11731;48.592;8.858;2023-04-26T14:06:09;2.60;;;1.80;;
23123;SDS011;11731;48.592;8.858;2023-04-26T14:08:36;5.83;;;2.30;;
23123;SDS011;11731;48.592;8.858;2023-04-26T14:11:03;4.13;;;2.00;;
23123;SDS011;11731;48.592;8.858;2023-04-26T14:13:30;2.77;;;2.30;;
23123;SDS011;11731;48.592;8.858;2023-04-26T14:15:57;3.73;;;2.00;;
23123;SDS011;11731;48.592;8.858;2023-04-26T14:18:24;2.83;;;2.07;;
23123;SDS011;11731;48.592;8.858;2023-04-26T14:20:51;2.67;;;1.90;;
23123;SDS011;11731;48.592;8.858;2023-04-26T14:23:20;4.30;;;2.17;;
23123;SDS011;11731;48.592;8.858;2023-04-26T14:25:49;4.57;;;2.30;;
23123;SDS011;11731;48.592;8.858;2023-04-26T14:28:16;3.87;;;2.30;;
23123;SDS011;11731;48.592;8.858;2023-04-26T14:30:43;1.90;;;1.70;;
23123;SDS011;11731;48.592;8.858;2023-04-26T14:33:10;5.13;;;2.20;;
23123;SDS011;11731;48.592;8.858;2023-04-26T14:35:37;4.03;;;2.70;;
23123;SDS011;11731;48.592;8.858;2023-04-26T14:38:04;3.63;;;2.10;;
23123;SDS011;11731;48.592;8.858;2023-04-26T14:40:33;5.23;;;2.10;;
23123;SDS011;11731;48.592;8.858;2023-04-26T14:43:01;3.63;;;1.70;;
23123;SDS011;11731;48.592;8.858;2023-04-26T14:45:28;3.37;;;2.00;;
23123;SDS011;11731;48.592;8.858;2023-04-26T14:47:57;1.97;;;1.83;;
23123;SDS011;11731;48.592;8.858;2023-04-26T14:50:25;2.70;;;1.77;;
23123;SDS011;11731;48.592;8.858;2023-04-26T14:52:52;3.20;;;1.83;;
23123;SDS011;11731;48.592;8.858;2023-04-26T14:55:19;2.33;;;1.90;;
23123;SDS011;11731;48.592;8.858;2023-04-26T14:57:48;3.40;;;1.67;;
23123;SDS011;11731;48.592;8.858;2023-04-26T15:00:16;5.43;;;2.03;;
23123;SDS011;11731;48.592;8.858;2023-04-26T15:02:43;4.53;;;2.00;;
23123;SDS011;11731;48.592;8.858;2023-04-26T15:05:10;3.47;;;1.90;;
23123;SDS011;11731;48.592;8.858;2023-04-26T15:07:38;2.57;;;1.90;;
23123;SDS011;11731;48.592;8.858;2023-04-26T15:10:05;5.00;;;1.93;;